sensor_id;sensor_type;location;lat;lon;timestamp;pressure;altitude;pressure_sealevel;temperature;humidity
11413;BME280;5762;43.256;26.960;2023-11-21T00:01:41;99198.53;;;4.68;100.00
11413;BME280;5762;43.256;26.960;2023-11-21T00:04:10;99188.88;;;4.70;100.00
11413;BME280;5762;43.256;26.960;2023-11-21T00:06:39;99196.98;;;4.47;100.00
11413;BME280;5762;43.256;26.960;2023-11-21T00:09:07;99196.73;;;4.44;100.00
11413;BME280;5762;43.256;26.960;2023-11-21T00:11:37;99211.95;;;4.58;100.00
11413;BME280;5762;43.256;26.960;2023-11-21T00:14:06;99199.60;;;4.67;100.00
11413;BME280;5762;43.256;26.960;2023-11-21T00:16:35;99207.11;;;4.65;100.00
11413;BME280;5762;43.256;26.960;2023-11-21T00:19:04;99204.98;;;4.52;100.00
11413;BME280;5762;43.256;26.960;2023-11-21T00:21:32;99201.48;;;4.64;100.00
11413;BME280;5762;43.256;26.960;2023-11-21T00:24:01;99206.05;;;4.64;100.00
11413;BME280;5762;43.256;26.960;2023-11-21T00:26:29;99198.27;;;4.67;100.00
11413;BME280;5762;43.256;26.960;2023-11-21T00:28:59;99198.55;;;4.58;100.00
11413;BME280;5762;43.256;26.960;2023-11-21T00:31:28;99192.71;;;4.41;100.00
11413;BME280;5762;43.256;26.960;2023-11-21T00:33:56;99201.02;;;4.45;100.00
11413;BME280;5762;43.256;26.960;2023-11-21T00:36:25;99196.95;;;4.55;100.00
11413;BME280;5762;43.256;26.960;2023-11-21T00:38:54;99196.46;;;4.40;100.00
11413;BME280;5762;43.256;26.960;2023-11-21T00:41:23;99191.11;;;4.40;100.00
11413;BME280;5762;43.256;26.960;2023-11-21T00:43:52;99191.11;;;4.35;100.00
11413;BME280;5762;43.256;26.960;2023-11-21T00:46:21;99193.25;;;4.43;100.00
11413;BME280;5762;43.256;26.960;2023-11-21T00:48:50;99192.70;;;4.46;100.00
11413;BME280;5762;43.256;26.960;2023-11-21T00:51:20;99205.57;;;4.44;100.00
11413;BME280;5762;43.256;26.960;2023-11-21T00:53:48;99204.23;;;4.29;100.00
11413;BME280;5762;43.256;26.960;2023-11-21T00:56:17;99198.88;;;4.19;100.00
11413;BME280;5762;43.256;26.960;2023-11-21T00:58:46;99198.11;;;4.16;100.00
11413;BME280;5762;43.256;26.960;2023-11-21T01:01:15;99193.27;;;4.23;100.00
11413;BME280;5762;43.256;26.960;2023-11-21T01:03:47;99187.63;;;4.34;100.00
11413;BME280;5762;43.256;26.960;2023-11-21T01:06:15;99188.98;;;4.22;100.00
11413;BME280;5762;43.256;26.960;2023-11-21T01:08:44;99188.70;;;4.28;100.00
11413;BME280;5762;43.256;26.960;2023-11-21T01:11:12;99185.77;;;4.20;100.00
11413;BME280;5762;43.256;26.960;2023-11-21T01:13:42;99196.50;;;4.10;100.00
11413;BME280;5762;43.256;26.960;2023-11-21T01:16:10;99188.44;;;4.22;100.00
11413;BME280;5762;43.256;26.960;2023-11-21T01:18:39;99183.61;;;4.29;100.00
11413;BME280;5762;43.256;26.960;2023-11-21T01:21:08;99184.69;;;4.28;100.00
11413;BME280;5762;43.256;26.960;2023-11-21T01:23:37;99183.34;;;4.36;100.00
11413;BME280;5762;43.256;26.960;2023-11-21T01:26:05;99170.46;;;4.48;100.00
11413;BME280;5762;43.256;26.960;2023-11-21T01:28:34;99170.39;;;4.66;100.00
11413;BME280;5762;43.256;26.960;2023-11-21T01:31:03;99164.23;;;4.68;100.00
11413;BME280;5762;43.256;26.960;2023-11-21T01:33:32;99179.74;;;4.79;100.00
11413;BME280;5762;43.256;26.960;2023-11-21T01:36:00;99176.25;;;4.81;100.00
11413;BME280;5762;43.256;26.960;2023-11-21T01:38:29;99178.67;;;4.77;100.00
11413;BME280;5762;43.256;26.960;2023-11-21T01:40:59;99174.76;;;4.44;100.00
11413;BME280;5762;43.256;26.960;2023-11-21T01:43:28;99172.89;;;4.42;100.00
11413;BME280;5762;43.256;26.960;2023-11-21T01:45:57;99172.30;;;4.53;100.00
11413;BME280;5762;43.256;26.960;2023-11-21T01:48:27;99173.37;;;4.54;100.00
11413;BME280;5762;43.256;26.960;2023-11-21T01:50:56;99161.90;;;4.44;100.00
11413;BME280;5762;43.256;26.960;2023-11-21T01:53:25;99182.48;;;4.51;100.00
11413;BME280;5762;43.256;26.960;2023-11-21T01:55:55;99173.70;;;4.37;100.00
11413;BME280;5762;43.256;26.960;2023-11-21T01:58:24;99177.72;;;4.35;100.00
11413;BME280;5762;43.256;26.960;2023-11-21T02:00:53;99178.52;;;4.38;100.00
11413;BME280;5762;43.256;26.960;2023-11-21T02:03:22;99175.84;;;4.35;100.00
11413;BME280;5762;43.256;26.960;2023-11-21T02:05:52;99173.42;;;4.44;100.00
11413;BME280;5762;43.256;26.960;2023-11-21T02:08:21;99168.81;;;4.52;100.00
11413;BME280;5762;43.256;26.960;2023-11-21T02:10:50;99167.95;;;4.75;100.00
11413;BME280;5762;43.256;26.960;2023-11-21T02:13:19;99170.41;;;4.58;100.00
11413;BME280;5762;43.256;26.960;2023-11-21T02:15:48;99171.98;;;4.75;100.00
11413;BME280;5762;43.256;26.960;2023-11-21T02:18:17;99172.28;;;4.60;100.00
11413;BME280;5762;43.256;26.960;2023-11-21T02:20:46;99180.31;;;4.68;100.00
11413;BME280;5762;43.256;26.960;2023-11-21T02:23:15;99178.40;;;4.79;100.00
11413;BME280;5762;43.256;26.960;2023-11-21T02:25:44;99180.75;;;4.88;100.00
11413;BME280;5762;43.256;26.960;2023-11-21T02:28:13;99182.69;;;4.82;100.00
11413;BME280;5762;43.256;26.960;2023-11-21T02:30:41;99186.73;;;4.69;100.00
11413;BME280;5762;43.256;26.960;2023-11-21T02:33:10;99189.45;;;4.54;100.00
11413;BME280;5762;43.256;26.960;2023-11-21T02:35:39;99192.97;;;4.50;100.00
11413;BME280;5762;43.256;26.960;2023-11-21T02:38:08;99202.35;;;4.45;100.00
11413;BME280;5762;43.256;26.960;2023-11-21T02:40:38;99193.25;;;4.43;100.00
11413;BME280;5762;43.256;26.960;2023-11-21T02:43:06;99191.09;;;4.45;100.00
11413;BME280;5762;43.256;26.960;2023-11-21T02:45:36;99191.91;;;4.38;100.00
11413;BME280;5762;43.256;26.960;2023-11-21T02:48:04;99195.67;;;4.32;100.00
11413;BME280;5762;43.256;26.960;2023-11-21T02:50:33;99197.00;;;4.37;100.00
11413;BME280;5762;43.256;26.960;2023-11-21T02:53:05;99197.80;;;4.45;100.00
11413;BME280;5762;43.256;26.960;2023-11-21T02:55:37;99194.27;;;4.52;100.00
11413;BME280;5762;43.256;26.960;2023-11-21T02:58:05;99191.31;;;4.56;100.00
11413;BME280;5762;43.256;26.960;2023-11-21T03:00:34;99188.62;;;4.61;100.00
11413;BME280;5762;43.256;26.960;2023-11-21T03:03:02;99174.39;;;4.74;100.00
11413;BME280;5762;43.256;26.960;2023-11-21T03:05:31;99174.11;;;4.78;100.00
11413;BME280;5762;43.256;26.960;2023-11-21T03:08:00;99180.22;;;4.88;100.00
11413;BME280;5762;43.256;26.960;2023-11-21T03:10:28;99177.77;;;4.99;100.00
11413;BME280;5762;43.256;26.960;2023-11-21T03:12:57;99175.61;;;5.01;100.00
11413;BME280;5762;43.256;26.960;2023-11-21T03:15:26;99175.84;;;5.10;100.00
11413;BME280;5762;43.256;26.960;2023-11-21T03:17:55;99170.48;;;5.10;100.00
11413;BME280;5762;43.256;26.960;2023-11-21T03:20:24;99169.41;;;5.09;100.00
11413;BME280;5762;43.256;26.960;2023-11-21T03:22:53;99164.87;;;5.07;100.00
11413;BME280;5762;43.256;26.960;2023-11-21T03:25:22;99169.95;;;5.08;100.00
11413;BME280;5762;43.256;26.960;2023-11-21T03:27:51;99170.46;;;5.15;100.00
11413;BME280;5762;43.256;26.960;2023-11-21T03:30:20;99164.55;;;5.18;100.00
11413;BME280;5762;43.256;26.960;2023-11-21T03:32:49;99172.11;;;5.06;100.00
11413;BME280;5762;43.256;26.960;2023-11-21T03:35:18;99168.59;;;5.13;100.00
11413;BME280;5762;43.256;26.960;2023-11-21T03:37:47;99168.90;;;5.04;100.00
11413;BME280;5762;43.256;26.960;2023-11-21T03:40:16;99167.79;;;5.13;100.00
11413;BME280;5762;43.256;26.960;2023-11-21T03:42:45;99178.02;;;5.03;100.00
11413;BME280;5762;43.256;26.960;2023-11-21T03:45:14;99180.98;;;5.01;100.00
11413;BME280;5762;43.256;26.960;2023-11-21T03:47:42;99182.05;;;5.00;100.00
11413;BME280;5762;43.256;26.960;2023-11-21T03:50:11;99181.52;;;4.98;100.00
11413;BME280;5762;43.256;26.960;2023-11-21T03:52:40;99185.67;;;4.65;100.00
11413;BME280;5762;43.256;26.960;2023-11-21T03:55:09;99184.61;;;4.59;100.00
11413;BME280;5762;43.256;26.960;2023-11-21T03:57:37;99184.59;;;4.66;100.00
11413;BME280;5762;43.256;26.960;2023-11-21T04:00:07;99188.36;;;4.63;100.00
11413;BME280;5762;43.256;26.960;2023-11-21T04:02:37;99190.58;;;4.35;100.00
11413;BME280;5762;43.256;26.960;2023-11-21T04:05:06;99201.02;;;4.27;100.00
11413;BME280;5762;43.256;26.960;2023-11-21T04:07:34;99203.97;;;4.33;100.00
11413;BME280;5762;43.256;26.960;2023-11-21T04:10:04;99191.85;;;4.56;100.00
11413;BME280;5762;43.256;26.960;2023-11-21T04:12:37;99205.79;;;4.55;100.00
11413;BME280;5762;43.256;26.960;2023-11-21T04:15:05;99202.66;;;4.08;100.00
11413;BME280;5762;43.256;26.960;2023-11-21T04:17:35;99208.82;;;4.06;100.00
11413;BME280;5762;43.256;26.960;2023-11-21T04:20:04;99217.13;;;4.04;100.00
11413;BME280;5762;43.256;26.960;2023-11-21T04:22:33;99220.61;;;4.15;100.00
11413;BME280;5762;43.256;26.960;2023-11-21T04:25:02;99212.58;;;4.12;100.00
11413;BME280;5762;43.256;26.960;2023-11-21T04:27:31;99211.23;;;4.15;100.00
11413;BME280;5762;43.256;26.960;2023-11-21T04:29:59;99208.26;;;4.19;100.00
11413;BME280;5762;43.256;26.960;2023-11-21T04:32:28;99212.58;;;4.12;100.00
11413;BME280;5762;43.256;26.960;2023-11-21T04:34:57;99210.43;;;4.09;100.00
11413;BME280;5762;43.256;26.960;2023-11-21T04:37:26;99211.20;;;4.30;100.00
11413;BME280;5762;43.256;26.960;2023-11-21T04:39:54;99207.18;;;4.37;100.00
11413;BME280;5762;43.256;26.960;2023-11-21T04:42:23;99212.01;;;4.25;100.00
11413;BME280;5762;43.256;26.960;2023-11-21T04:44:51;99209.89;;;4.15;100.00
11413;BME280;5762;43.256;26.960;2023-11-21T04:47:20;99217.39;;;4.02;100.00
11413;BME280;5762;43.256;26.960;2023-11-21T04:49:49;99218.45;;;4.01;100.00
11413;BME280;5762;43.256;26.960;2023-11-21T04:52:18;99209.09;;;4.07;100.00
11413;BME280;5762;43.256;26.960;2023-11-21T04:54:47;99214.44;;;4.01;100.00
11413;BME280;5762;43.256;26.960;2023-11-21T04:57:16;99223.53;;;3.95;100.00
11413;BME280;5762;43.256;26.960;2023-11-21T04:59:45;99223.80;;;3.89;100.00
11413;BME280;5762;43.256;26.960;2023-11-21T05:02:14;99227.03;;;3.81;100.00
11413;BME280;5762;43.256;26.960;2023-11-21T05:04:43;99221.66;;;3.88;100.00
11413;BME280;5762;43.256;26.960;2023-11-21T05:07:11;99220.86;;;3.93;100.00
11413;BME280;5762;43.256;26.960;2023-11-21T05:09:41;99225.94;;;3.89;100.00
11413;BME280;5762;43.256;26.960;2023-11-21T05:12:10;99225.95;;;3.79;100.00
11413;BME280;5762;43.256;26.960;2023-11-21T05:14:39;99230.75;;;3.69;100.00
11413;BME280;5762;43.256;26.960;2023-11-21T05:17:08;99232.37;;;3.91;100.00
11413;BME280;5762;43.256;26.960;2023-11-21T05:19:37;99234.24;;;3.90;100.00
11413;BME280;5762;43.256;26.960;2023-11-21T05:22:06;99235.04;;;3.88;100.00
11413;BME280;5762;43.256;26.960;2023-11-21T05:24:35;99239.31;;;3.84;100.00
11413;BME280;5762;43.256;26.960;2023-11-21T05:27:04;99240.94;;;3.90;100.00
11413;BME280;5762;43.256;26.960;2023-11-21T05:29:33;99235.58;;;3.90;100.00
11413;BME280;5762;43.256;26.960;2023-11-21T05:32:03;99236.39;;;3.98;100.00
11413;BME280;5762;43.256;26.960;2023-11-21T05:34:32;99234.53;;;4.07;100.00
11413;BME280;5762;43.256;26.960;2023-11-21T05:37:00;99241.22;;;4.12;100.00
11413;BME280;5762;43.256;26.960;2023-11-21T05:39:29;99244.70;;;4.12;100.00
11413;BME280;5762;43.256;26.960;2023-11-21T05:41:57;99252.98;;;4.18;100.00
11413;BME280;5762;43.256;26.960;2023-11-21T05:44:27;99251.38;;;4.30;100.00
11413;BME280;5762;43.256;26.960;2023-11-21T05:46:55;99249.23;;;4.27;100.00
11413;BME280;5762;43.256;26.960;2023-11-21T05:49:25;99253.52;;;4.33;100.00
11413;BME280;5762;43.256;26.960;2023-11-21T05:51:53;99252.72;;;4.40;100.00
11413;BME280;5762;43.256;26.960;2023-11-21T05:54:22;99252.45;;;4.44;100.00
11413;BME280;5762;43.256;26.960;2023-11-21T05:56:51;99259.42;;;4.45;100.00
11413;BME280;5762;43.256;26.960;2023-11-21T05:59:20;99253.52;;;4.48;100.00
11413;BME280;5762;43.256;26.960;2023-11-21T06:01:49;99258.31;;;4.51;100.00
11413;BME280;5762;43.256;26.960;2023-11-21T06:04:17;99246.52;;;4.62;100.00
11413;BME280;5762;43.256;26.960;2023-11-21T06:06:46;99247.85;;;4.62;100.00
11413;BME280;5762;43.256;26.960;2023-11-21T06:09:15;99248.11;;;4.74;100.00
11413;BME280;5762;43.256;26.960;2023-11-21T06:11:44;99259.31;;;4.88;100.00
11413;BME280;5762;43.256;26.960;2023-11-21T06:14:13;99254.48;;;4.85;100.00
11413;BME280;5762;43.256;26.960;2023-11-21T06:16:42;99248.03;;;4.94;100.00
11413;BME280;5762;43.256;26.960;2023-11-21T06:19:11;99259.81;;;5.03;100.00
11413;BME280;5762;43.256;26.960;2023-11-21T06:21:40;99257.10;;;5.13;100.00
11413;BME280;5762;43.256;26.960;2023-11-21T06:24:08;99256.77;;;5.22;100.00
11413;BME280;5762;43.256;26.960;2023-11-21T06:26:36;99257.80;;;5.36;100.00
11413;BME280;5762;43.256;26.960;2023-11-21T06:29:05;99252.39;;;5.47;100.00
11413;BME280;5762;43.256;26.960;2023-11-21T06:31:34;99252.36;;;5.52;100.00
11413;BME280;5762;43.256;26.960;2023-11-21T06:34:03;99243.97;;;5.61;100.00
11413;BME280;5762;43.256;26.960;2023-11-21T06:36:32;99245.23;;;5.76;100.00
11413;BME280;5762;43.256;26.960;2023-11-21T06:39:00;99245.73;;;5.81;100.00
11413;BME280;5762;43.256;26.960;2023-11-21T06:41:29;99247.00;;;5.93;100.00
11413;BME280;5762;43.256;26.960;2023-11-21T06:43:58;99249.10;;;6.01;100.00
11413;BME280;5762;43.256;26.960;2023-11-21T06:46:27;99242.59;;;6.10;100.00
11413;BME280;5762;43.256;26.960;2023-11-21T06:48:56;99250.38;;;6.12;100.00
11413;BME280;5762;43.256;26.960;2023-11-21T06:51:24;99251.81;;;6.30;100.00
11413;BME280;5762;43.256;26.960;2023-11-21T06:53:53;99253.86;;;6.44;100.00
11413;BME280;5762;43.256;26.960;2023-11-21T06:56:22;99255.16;;;6.49;100.00
11413;BME280;5762;43.256;26.960;2023-11-21T06:58:51;99258.33;;;6.56;100.00
11413;BME280;5762;43.256;26.960;2023-11-21T07:01:21;99261.91;;;6.72;100.00
11413;BME280;5762;43.256;26.960;2023-11-21T07:03:50;99263.19;;;6.80;100.00
11413;BME280;5762;43.256;26.960;2023-11-21T07:06:19;99256.28;;;6.95;100.00
11413;BME280;5762;43.256;26.960;2023-11-21T07:08:48;99248.67;;;7.02;100.00
11413;BME280;5762;43.256;26.960;2023-11-21T07:11:17;99247.67;;;7.20;100.00
11413;BME280;5762;43.256;26.960;2023-11-21T07:13:45;99243.03;;;7.25;100.00
11413;BME280;5762;43.256;26.960;2023-11-21T07:16:14;99248.42;;;7.25;100.00
11413;BME280;5762;43.256;26.960;2023-11-21T07:18:43;99245.70;;;7.04;100.00
11413;BME280;5762;43.256;26.960;2023-11-21T07:21:12;99246.84;;;7.22;100.00
11413;BME280;5762;43.256;26.960;2023-11-21T07:23:41;99253.39;;;7.34;100.00
11413;BME280;5762;43.256;26.960;2023-11-21T07:26:10;99253.91;;;7.36;100.00
11413;BME280;5762;43.256;26.960;2023-11-21T07:28:39;99256.41;;;7.52;100.00
11413;BME280;5762;43.256;26.960;2023-11-21T07:31:08;99259.94;;;7.68;100.00
11413;BME280;5762;43.256;26.960;2023-11-21T07:33:37;99252.41;;;7.68;100.00
11413;BME280;5762;43.256;26.960;2023-11-21T07:36:05;99258.39;;;7.84;100.00
11413;BME280;5762;43.256;26.960;2023-11-21T07:38:34;99249.22;;;7.85;100.00
11413;BME280;5762;43.256;26.960;2023-11-21T07:41:03;99252.50;;;7.98;100.00
11413;BME280;5762;43.256;26.960;2023-11-21T07:43:32;99249.73;;;8.03;100.00
11413;BME280;5762;43.256;26.960;2023-11-21T07:46:04;99259.23;;;7.98;100.00
11413;BME280;5762;43.256;26.960;2023-11-21T07:48:32;99256.86;;;7.96;100.00
11413;BME280;5762;43.256;26.960;2023-11-21T07:51:02;99264.69;;;7.95;100.00
11413;BME280;5762;43.256;26.960;2023-11-21T07:53:36;99258.87;;;8.04;100.00
11413;BME280;5762;43.256;26.960;2023-11-21T07:56:05;99267.13;;;7.94;100.00
11413;BME280;5762;43.256;26.960;2023-11-21T07:58:38;99259.63;;;7.91;100.00
11413;BME280;5762;43.256;26.960;2023-11-21T08:01:06;99254.64;;;7.98;100.00
11413;BME280;5762;43.256;26.960;2023-11-21T08:03:35;99251.07;;;7.87;100.00
11413;BME280;5762;43.256;26.960;2023-11-21T08:06:03;99256.50;;;7.84;100.00
11413;BME280;5762;43.256;26.960;2023-11-21T08:08:32;99247.50;;;7.91;100.00
11413;BME280;5762;43.256;26.960;2023-11-21T08:11:01;99251.80;;;7.92;100.00
11413;BME280;5762;43.256;26.960;2023-11-21T08:13:30;99241.94;;;8.01;100.00
11413;BME280;5762;43.256;26.960;2023-11-21T08:15:58;99253.58;;;8.16;100.00
11413;BME280;5762;43.256;26.960;2023-11-21T08:18:28;99257.55;;;8.21;100.00
11413;BME280;5762;43.256;26.960;2023-11-21T08:20:56;99257.14;;;8.30;100.00
11413;BME280;5762;43.256;26.960;2023-11-21T08:23:25;99259.05;;;8.11;100.00
11413;BME280;5762;43.256;26.960;2023-11-21T08:25:54;99256.13;;;8.26;100.00
11413;BME280;5762;43.256;26.960;2023-11-21T08:28:23;99254.32;;;8.37;100.00
11413;BME280;5762;43.256;26.960;2023-11-21T08:30:53;99257.73;;;8.43;100.00
11413;BME280;5762;43.256;26.960;2023-11-21T08:33:21;99255.97;;;8.52;100.00
11413;BME280;5762;43.256;26.960;2023-11-21T08:35:50;99262.45;;;8.51;100.00
11413;BME280;5762;43.256;26.960;2023-11-21T08:38:19;99260.05;;;8.50;100.00
11413;BME280;5762;43.256;26.960;2023-11-21T08:40:48;99258.33;;;8.56;100.00
11413;BME280;5762;43.256;26.960;2023-11-21T08:43:16;99253.73;;;8.57;100.00
11413;BME280;5762;43.256;26.960;2023-11-21T08:45:45;99246.49;;;8.68;100.00
11413;BME280;5762;43.256;26.960;2023-11-21T08:48:14;99240.83;;;8.84;100.00
11413;BME280;5762;43.256;26.960;2023-11-21T08:50:43;99245.17;;;8.82;100.00
11413;BME280;5762;43.256;26.960;2023-11-21T08:53:12;99239.30;;;8.94;100.00
11413;BME280;5762;43.256;26.960;2023-11-21T08:55:41;99234.49;;;8.91;100.00
11413;BME280;5762;43.256;26.960;2023-11-21T08:58:10;99231.70;;;8.96;100.00
11413;BME280;5762;43.256;26.960;2023-11-21T09:00:42;99227.73;;;9.18;100.00
11413;BME280;5762;43.256;26.960;2023-11-21T09:03:09;99234.09;;;9.36;100.00
11413;BME280;5762;43.256;26.960;2023-11-21T09:05:38;99217.84;;;9.38;100.00
11413;BME280;5762;43.256;26.960;2023-11-21T09:08:07;99220.69;;;9.45;100.00
11413;BME280;5762;43.256;26.960;2023-11-21T09:10:36;99220.58;;;9.50;100.00
11413;BME280;5762;43.256;26.960;2023-11-21T09:13:05;99219.25;;;9.72;100.00
11413;BME280;5762;43.256;26.960;2023-11-21T09:15:34;99225.53;;;9.81;100.00
11413;BME280;5762;43.256;26.960;2023-11-21T09:18:03;99216.09;;;9.92;100.00
11413;BME280;5762;43.256;26.960;2023-11-21T09:20:32;99212.27;;;9.82;100.00
11413;BME280;5762;43.256;26.960;2023-11-21T09:23:01;99223.73;;;10.01;100.00
11413;BME280;5762;43.256;26.960;2023-11-21T09:25:30;99220.16;;;9.92;100.00
11413;BME280;5762;43.256;26.960;2023-11-21T09:27:59;99217.84;;;10.22;100.00
11413;BME280;5762;43.256;26.960;2023-11-21T09:30:27;99221.04;;;10.35;100.00
11413;BME280;5762;43.256;26.960;2023-11-21T09:32:57;99223.86;;;10.30;100.00
11413;BME280;5762;43.256;26.960;2023-11-21T09:35:25;99216.13;;;10.57;100.00
11413;BME280;5762;43.256;26.960;2023-11-21T09:37:54;99217.09;;;10.72;100.00
11413;BME280;5762;43.256;26.960;2023-11-21T09:40:23;99207.45;;;10.77;100.00
11413;BME280;5762;43.256;26.960;2023-11-21T09:42:55;99209.72;;;10.84;100.00
11413;BME280;5762;43.256;26.960;2023-11-21T09:45:32;99208.09;;;10.94;100.00
11413;BME280;5762;43.256;26.960;2023-11-21T09:47:59;99194.83;;;11.03;100.00
11413;BME280;5762;43.256;26.960;2023-11-21T09:50:28;99187.92;;;11.08;100.00
11413;BME280;5762;43.256;26.960;2023-11-21T09:55:27;99193.53;;;11.29;100.00
11413;BME280;5762;43.256;26.960;2023-11-21T09:57:56;99196.42;;;11.41;100.00
11413;BME280;5762;43.256;26.960;2023-11-21T10:00:25;99202.39;;;11.50;100.00
11413;BME280;5762;43.256;26.960;2023-11-21T10:02:53;99203.52;;;11.57;100.00
11413;BME280;5762;43.256;26.960;2023-11-21T10:05:23;99199.47;;;11.66;100.00
11413;BME280;5762;43.256;26.960;2023-11-21T10:07:51;99202.17;;;11.66;100.00
11413;BME280;5762;43.256;26.960;2023-11-21T10:10:21;99211.77;;;11.98;100.00
11413;BME280;5762;43.256;26.960;2023-11-21T10:12:51;99210.45;;;12.21;100.00
11413;BME280;5762;43.256;26.960;2023-11-21T10:15:25;99210.11;;;12.40;100.00
11413;BME280;5762;43.256;26.960;2023-11-21T10:17:49;99224.96;;;12.66;100.00
11413;BME280;5762;43.256;26.960;2023-11-21T10:20:23;99232.44;;;12.92;100.00
11413;BME280;5762;43.256;26.960;2023-11-21T10:22:48;99242.59;;;13.13;100.00
11413;BME280;5762;43.256;26.960;2023-11-21T10:25:16;99266.12;;;13.23;100.00
11413;BME280;5762;43.256;26.960;2023-11-21T10:27:46;99271.91;;;13.36;100.00
11413;BME280;5762;43.256;26.960;2023-11-21T10:30:14;99262.89;;;13.59;100.00
11413;BME280;5762;43.256;26.960;2023-11-21T10:32:44;99260.86;;;13.77;100.00
11413;BME280;5762;43.256;26.960;2023-11-21T10:35:12;99263.95;;;13.82;100.00
11413;BME280;5762;43.256;26.960;2023-11-21T10:37:42;99265.78;;;13.84;100.00
11413;BME280;5762;43.256;26.960;2023-11-21T10:40:11;99279.20;;;13.95;100.00
11413;BME280;5762;43.256;26.960;2023-11-21T10:42:41;99274.37;;;13.80;100.00
11413;BME280;5762;43.256;26.960;2023-11-21T10:45:10;99271.09;;;13.80;100.00
11413;BME280;5762;43.256;26.960;2023-11-21T10:47:41;99273.72;;;13.89;100.00
11413;BME280;5762;43.256;26.960;2023-11-21T10:50:10;99278.98;;;14.15;100.00
11413;BME280;5762;43.256;26.960;2023-11-21T10:52:42;99279.61;;;14.32;100.00
11413;BME280;5762;43.256;26.960;2023-11-21T10:55:18;99278.84;;;14.38;100.00
11413;BME280;5762;43.256;26.960;2023-11-21T10:57:48;99277.69;;;14.33;100.00
11413;BME280;5762;43.256;26.960;2023-11-21T11:00:17;99272.64;;;14.23;100.00
11413;BME280;5762;43.256;26.960;2023-11-21T11:02:52;99271.08;;;14.28;100.00
11413;BME280;5762;43.256;26.960;2023-11-21T11:05:22;99264.49;;;14.44;100.00
11413;BME280;5762;43.256;26.960;2023-11-21T11:07:58;99259.96;;;14.27;100.00
11413;BME280;5762;43.256;26.960;2023-11-21T11:10:27;99251.23;;;14.27;100.00
11413;BME280;5762;43.256;26.960;2023-11-21T11:12:56;99252.37;;;14.47;100.00
11413;BME280;5762;43.256;26.960;2023-11-21T11:15:26;99257.03;;;14.59;100.00
11413;BME280;5762;43.256;26.960;2023-11-21T11:17:55;99257.67;;;14.83;100.00
11413;BME280;5762;43.256;26.960;2023-11-21T11:20:27;99268.47;;;15.03;100.00
11413;BME280;5762;43.256;26.960;2023-11-21T11:28:29;99242.58;;;15.34;100.00
11413;BME280;5762;43.256;26.960;2023-11-21T11:33:36;99252.47;;;15.45;100.00
11413;BME280;5762;43.256;26.960;2023-11-21T11:36:13;99252.46;;;15.38;100.00
11413;BME280;5762;43.256;26.960;2023-11-21T11:38:44;99257.14;;;15.20;100.00
11413;BME280;5762;43.256;26.960;2023-11-21T11:41:09;99252.34;;;15.29;100.00
11413;BME280;5762;43.256;26.960;2023-11-21T11:43:38;99249.51;;;15.31;100.00
11413;BME280;5762;43.256;26.960;2023-11-21T11:46:11;99255.42;;;15.33;100.00
11413;BME280;5762;43.256;26.960;2023-11-21T11:48:39;99256.67;;;15.42;100.00
11413;BME280;5762;43.256;26.960;2023-11-21T11:51:14;99261.67;;;15.52;100.00
11413;BME280;5762;43.256;26.960;2023-11-21T11:53:43;99254.97;;;15.43;100.00
11413;BME280;5762;43.256;26.960;2023-11-21T11:56:22;99253.83;;;15.45;100.00
11413;BME280;5762;43.256;26.960;2023-11-21T11:58:42;99247.02;;;15.38;100.00
11413;BME280;5762;43.256;26.960;2023-11-21T12:01:11;99250.64;;;15.36;100.00
11413;BME280;5762;43.256;26.960;2023-11-21T12:03:40;99249.40;;;15.40;100.00
11413;BME280;5762;43.256;26.960;2023-11-21T12:06:09;99246.89;;;15.47;100.00
11413;BME280;5762;43.256;26.960;2023-11-21T12:08:38;99244.16;;;15.53;100.00
11413;BME280;5762;43.256;26.960;2023-11-21T12:11:06;99234.50;;;15.62;100.00
11413;BME280;5762;43.256;26.960;2023-11-21T12:13:36;99230.67;;;15.57;100.00
11413;BME280;5762;43.256;26.960;2023-11-21T12:16:05;99217.91;;;15.61;100.00
11413;BME280;5762;43.256;26.960;2023-11-21T12:18:33;99216.09;;;15.65;100.00
11413;BME280;5762;43.256;26.960;2023-11-21T12:21:02;99214.27;;;15.63;100.00
11413;BME280;5762;43.256;26.960;2023-11-21T12:23:30;99207.94;;;15.59;100.00
11413;BME280;5762;43.256;26.960;2023-11-21T12:26:00;99204.73;;;15.51;100.00
11413;BME280;5762;43.256;26.960;2023-11-21T12:28:29;99206.11;;;15.45;100.00
11413;BME280;5762;43.256;26.960;2023-11-21T12:30:57;99200.32;;;15.34;100.00
11413;BME280;5762;43.256;26.960;2023-11-21T12:33:26;99199.41;;;15.30;100.00
11413;BME280;5762;43.256;26.960;2023-11-21T12:35:55;99196.80;;;15.39;100.00
11413;BME280;5762;43.256;26.960;2023-11-21T12:38:24;99195.20;;;15.38;100.00
11413;BME280;5762;43.256;26.960;2023-11-21T12:40:53;99188.16;;;15.37;100.00
11413;BME280;5762;43.256;26.960;2023-11-21T12:43:22;99188.88;;;15.22;100.00
11413;BME280;5762;43.256;26.960;2023-11-21T12:45:51;99188.53;;;15.12;100.00
11413;BME280;5762;43.256;26.960;2023-11-21T12:48:21;99184.11;;;15.19;100.00
11413;BME280;5762;43.256;26.960;2023-11-21T12:50:51;99184.00;;;15.22;100.00
11413;BME280;5762;43.256;26.960;2023-11-21T12:53:20;99170.02;;;15.23;100.00
11413;BME280;5762;43.256;26.960;2023-11-21T12:55:49;99163.09;;;15.01;100.00
11413;BME280;5762;43.256;26.960;2023-11-21T12:58:19;99161.51;;;15.00;100.00
11413;BME280;5762;43.256;26.960;2023-11-21T13:00:48;99147.09;;;14.94;100.00
11413;BME280;5762;43.256;26.960;2023-11-21T13:03:17;99144.59;;;15.01;100.00
11413;BME280;5762;43.256;26.960;2023-11-21T13:05:49;99140.05;;;14.93;100.00
11413;BME280;5762;43.256;26.960;2023-11-21T13:08:18;99144.25;;;14.90;100.00
11413;BME280;5762;43.256;26.960;2023-11-21T13:10:49;99136.08;;;14.90;100.00
11413;BME280;5762;43.256;26.960;2023-11-21T13:13:16;99132.90;;;15.00;100.00
11413;BME280;5762;43.256;26.960;2023-11-21T13:15:49;99133.23;;;14.93;100.00
11413;BME280;5762;43.256;26.960;2023-11-21T13:18:17;99127.59;;;14.86;100.00